Whitehall, New York
Current Conditions -  °F | °C
As of 7:53 AM on Sunday 23 Nov 2014 (Local Time) from KGFL Reporting Station
Overcast Overcast  
Wind Chill: 33°   Ceiling: 2200
Heat Index: 37°   Visibility: 7mi
Dew Point: 32°   Wind: 5mph
Humidity: 82%   Direction: 130°SE
Pressure: 30.11"   Gusts: NA
Location:  43.56°N, 73.4°W
Report Text: KGFL 231253Z AUTO 13004KT 7SM OVC022 03/00 A3011 RMK AO2 SLP203 T00280000
Loading
Personal Weather Stations






























Interactive Weather Map New forecast layout! Learn more

10-Day Weather Forecast

Advertisements
Track Severe Weather on mobile